Time;durP1;ratioP1;P1;durP2;ratioP2;P2;SDS_P1;SDS_P2;PMS_P1;PMS_P2;Temp;Humidity;BMP_temperature;BMP_pressure;BME280_temperature;BME280_humidity;BME280_pressure;Samples;Min_cycle;Max_cycle;Signal;HPM_P1;HPM_P2
2021/01/05 00:00:50;;;;;;;26.65;11.25;;;4.30;84.10;;;;;;5017703;28;20036;-61
2021/01/05 00:03:16;;;;;;;25.63;11.50;;;4.30;83.90;;;;;;5018699;28;20124;-62
2021/01/05 00:05:42;;;;;;;19.83;9.75;;;4.30;83.70;;;;;;5021902;28;20030;-61
2021/01/05 00:08:08;;;;;;;21.95;9.88;;;4.30;83.90;;;;;;5021780;28;20492;-61
2021/01/05 00:10:33;;;;;;;22.65;10.70;;;4.30;83.80;;;;;;5022178;28;20037;-61
2021/01/05 00:12:59;;;;;;;25.67;10.63;;;4.30;84.00;;;;;;5022204;28;20072;-61
2021/01/05 00:15:25;;;;;;;22.17;10.95;;;4.30;84.00;;;;;;5021057;28;20029;-62
2021/01/05 00:17:50;;;;;;;19.38;9.75;;;4.30;84.00;;;;;;5021163;28;20068;-61
2021/01/05 00:20:23;;;;;;;22.52;10.95;;;4.30;84.00;;;;;;5021866;28;20041;-62
2021/01/05 00:22:49;;;;;;;21.70;11.10;;;4.30;84.10;;;;;;5021286;28;20123;-61
2021/01/05 00:25:17;;;;;;;29.50;12.85;;;4.30;84.20;;;;;;5021684;28;20516;-62
2021/01/05 00:27:43;;;;;;;21.88;10.85;;;4.30;84.50;;;;;;5021346;28;20087;-61
2021/01/05 00:30:13;;;;;;;25.45;12.23;;;4.30;84.00;;;;;;5021685;28;20045;-62
2021/01/05 00:32:44;;;;;;;23.75;10.57;;;4.20;84.00;;;;;;5021478;28;20038;-61
2021/01/05 00:35:12;;;;;;;32.70;12.43;;;4.20;84.10;;;;;;5021179;28;20047;-61
2021/01/05 00:37:38;;;;;;;27.02;12.35;;;4.10;84.00;;;;;;5011959;28;20060;-61
2021/01/05 00:40:06;;;;;;;31.35;12.43;;;4.10;84.30;;;;;;5018374;28;20379;-62
2021/01/05 00:42:31;;;;;;;29.27;12.25;;;4.10;84.20;;;;;;5021504;28;20037;-61
2021/01/05 00:44:57;;;;;;;27.33;12.25;;;4.10;84.10;;;;;;5020849;28;20045;-62
2021/01/05 00:47:23;;;;;;;29.25;12.02;;;4.00;84.40;;;;;;5003375;28;20025;-61
2021/01/05 00:49:49;;;;;;;25.33;11.30;;;3.90;84.30;;;;;;4984118;28;20539;-61
2021/01/05 00:52:15;;;;;;;30.75;12.43;;;4.00;84.60;;;;;;5000256;28;20021;-61
2021/01/05 00:54:40;;;;;;;27.67;11.60;;;4.00;85.00;;;;;;5021043;28;20113;-61
2021/01/05 00:57:09;;;;;;;27.88;11.70;;;4.00;84.80;;;;;;5020745;28;20053;-61
2021/01/05 00:59:40;;;;;;;29.83;12.90;;;4.00;84.80;;;;;;5002769;28;20894;-61
2021/01/05 01:02:06;;;;;;;34.72;13.73;;;4.00;84.40;;;;;;5003202;28;20041;-61
2021/01/05 01:04:33;;;;;;;24.60;11.40;;;4.00;84.80;;;;;;5021138;28;20033;-63
2021/01/05 01:07:00;;;;;;;31.33;13.10;;;3.90;84.70;;;;;;5002011;28;20140;-61
2021/01/05 01:09:27;;;;;;;26.75;12.15;;;3.90;84.80;;;;;;5000306;28;20033;-61
2021/01/05 01:12:17;;;;;;;24.10;11.50;;;3.80;84.70;;;;;;5002252;28;20705;-61
2021/01/05 01:14:48;;;;;;;29.45;12.40;;;3.80;85.00;;;;;;5006128;28;20044;-61
2021/01/05 01:17:17;;;;;;;30.05;12.88;;;3.80;85.40;;;;;;5016191;28;20081;-61
2021/01/05 01:19:43;;;;;;;31.17;12.57;;;3.80;85.60;;;;;;5020814;28;20685;-61
2021/01/05 01:22:10;;;;;;;28.23;11.75;;;3.80;85.60;;;;;;5001832;28;20044;-62
2021/01/05 01:24:35;;;;;;;34.00;13.18;;;3.90;85.60;;;;;;5020478;28;20152;-62
2021/01/05 01:27:02;;;;;;;28.23;12.32;;;3.90;85.50;;;;;;5001959;28;20545;-61
2021/01/05 01:29:28;;;;;;;27.90;11.80;;;3.90;85.60;;;;;;5020020;28;20036;-61
2021/01/05 01:31:56;;;;;;;28.63;12.23;;;3.90;85.50;;;;;;5002378;28;20033;-61
2021/01/05 01:34:25;;;;;;;31.73;13.13;;;3.90;85.00;;;;;;5001951;28;20564;-62
2021/01/05 01:37:05;;;;;;;27.05;13.13;;;3.90;85.50;;;;;;5001638;28;20033;-62
2021/01/05 01:39:34;;;;;;;30.25;12.80;;;4.00;85.70;;;;;;5020014;28;20072;-62
2021/01/05 01:42:05;;;;;;;29.83;12.30;;;4.00;85.80;;;;;;5019760;28;20045;-61
2021/01/05 01:44:37;;;;;;;29.05;11.00;;;4.00;85.60;;;;;;5020022;28;20073;-61
2021/01/05 01:47:14;;;;;;;31.48;12.93;;;3.90;85.40;;;;;;5001863;28;20033;-61
2021/01/05 01:49:40;;;;;;;26.05;11.90;;;4.00;85.70;;;;;;5001513;28;20034;-61
2021/01/05 01:52:08;;;;;;;32.97;13.57;;;4.00;85.40;;;;;;5019930;28;20068;-61
2021/01/05 01:54:46;;;;;;;30.52;13.55;;;4.00;85.00;;;;;;5019570;28;20037;-61
2021/01/05 01:57:31;;;;;;;26.60;12.40;;;4.00;85.10;;;;;;5001542;28;20033;-61
2021/01/05 02:00:26;;;;;;;30.10;13.35;;;3.90;85.10;;;;;;5001218;28;20048;-61
2021/01/05 02:03:17;;;;;;;32.03;13.13;;;4.00;85.40;;;;;;5019960;28;20037;-61
2021/01/05 02:06:08;;;;;;;30.73;12.52;;;4.00;85.90;;;;;;5001388;28;20402;-61
2021/01/05 02:08:43;;;;;;;31.02;12.18;;;4.00;85.60;;;;;;5001937;28;20034;-61
2021/01/05 02:11:27;;;;;;;29.90;12.65;;;4.00;85.50;;;;;;5001026;28;20079;-61
2021/01/05 02:14:37;;;;;;;32.05;14.15;;;4.00;85.30;;;;;;4982700;28;20048;-63
2021/01/05 02:17:45;;;;;;;29.83;12.23;;;4.10;86.50;;;;;;4988372;28;20111;-63
2021/01/05 02:20:24;;;;;;;26.67;12.45;;;4.10;85.30;;;;;;5001921;28;20905;-63
2021/01/05 02:23:06;;;;;;;24.52;11.73;;;4.00;85.30;;;;;;4996159;28;20038;-63
2021/01/05 02:26:02;;;;;;;28.02;11.55;;;4.00;85.00;;;;;;5002146;28;20478;-63
2021/01/05 02:28:39;;;;;;;22.88;10.07;;;4.00;85.10;;;;;;4999890;28;20034;-63
2021/01/05 02:31:15;;;;;;;24.25;10.70;;;4.00;85.30;;;;;;5001938;28;20043;-63
2021/01/05 02:33:41;;;;;;;28.17;11.65;;;4.00;85.30;;;;;;5002233;28;20041;-63
2021/01/05 02:36:43;;;;;;;30.70;13.05;;;4.00;85.50;;;;;;5000748;28;20038;-63
2021/01/05 02:39:58;;;;;;;24.75;11.70;;;4.00;85.30;;;;;;5018354;28;20136;-63
2021/01/05 02:42:52;;;;;;;22.90;10.63;;;3.90;86.20;;;;;;5018212;28;20110;-63
2021/01/05 02:46:01;;;;;;;27.73;11.63;;;4.00;85.50;;;;;;5018251;28;20123;-63
2021/01/05 02:48:57;;;;;;;24.02;12.15;;;4.00;85.50;;;;;;5018202;28;20044;-63
2021/01/05 02:52:15;;;;;;;20.90;10.52;;;4.00;85.30;;;;;;5018413;28;20239;-63
2021/01/05 02:55:26;;;;;;;25.23;11.77;;;4.00;86.00;;;;;;5018091;28;20203;-62
2021/01/05 02:58:32;;;;;;;24.27;10.85;;;4.00;85.40;;;;;;5018343;28;20044;-63
2021/01/05 03:01:54;;;;;;;22.75;10.52;;;4.00;85.50;;;;;;5003538;28;20048;-63
2021/01/05 03:04:42;;;;;;;21.63;10.20;;;4.00;85.40;;;;;;4999823;28;20050;-63
2021/01/05 03:07:46;;;;;;;25.23;11.82;;;4.00;85.10;;;;;;4926739;29;20118;-63
2021/01/05 03:11:01;;;;;;;24.60;10.35;;;4.10;85.60;;;;;;5013663;28;20056;-63
2021/01/05 03:14:18;;;;;;;28.15;12.27;;;4.10;85.20;;;;;;5019554;28;20116;-63
2021/01/05 03:17:17;;;;;;;26.08;11.15;;;4.10;85.40;;;;;;5001655;28;20048;-63
2021/01/05 03:20:24;;;;;;;24.92;11.15;;;4.20;85.60;;;;;;5018388;28;20040;-63
2021/01/05 03:23:12;;;;;;;24.48;11.25;;;4.20;85.40;;;;;;5018299;28;20834;-63
2021/01/05 03:25:59;;;;;;;28.65;12.63;;;4.10;84.70;;;;;;5018020;28;20037;-63
2021/01/05 03:28:44;;;;;;;30.77;13.82;;;4.10;84.50;;;;;;5018560;28;20048;-63
2021/01/05 03:31:54;;;;;;;24.85;12.35;;;4.10;85.30;;;;;;5018352;28;20441;-63
2021/01/05 03:34:39;;;;;;;25.13;12.15;;;4.10;85.20;;;;;;5018687;28;20103;-63
2021/01/05 03:37:23;;;;;;;24.65;11.95;;;4.10;85.10;;;;;;5017973;28;20081;-63
2021/01/05 03:40:09;;;;;;;26.25;12.05;;;4.10;84.80;;;;;;5018185;28;20044;-63
2021/01/05 03:42:53;;;;;;;26.33;12.68;;;4.10;85.60;;;;;;5017729;28;20043;-63
2021/01/05 03:45:37;;;;;;;25.65;12.13;;;4.10;84.90;;;;;;5002872;28;20048;-63
2021/01/05 03:48:21;;;;;;;23.77;11.75;;;4.10;85.40;;;;;;5017893;28;20500;-63
2021/01/05 03:51:06;;;;;;;21.90;11.18;;;4.10;85.20;;;;;;5018148;28;20111;-63
2021/01/05 03:54:07;;;;;;;21.70;10.73;;;4.20;84.80;;;;;;4936702;29;20050;-63
2021/01/05 03:56:51;;;;;;;26.08;11.75;;;4.10;84.70;;;;;;5010863;28;20065;-63
2021/01/05 03:59:36;;;;;;;23.77;11.68;;;4.10;85.20;;;;;;5018157;28;20088;-63
2021/01/05 04:02:20;;;;;;;24.85;12.27;;;4.10;85.00;;;;;;5015903;28;20048;-63
2021/01/05 04:04:45;;;;;;;25.05;12.52;;;4.10;85.20;;;;;;5017692;28;20029;-63
2021/01/05 04:07:11;;;;;;;24.80;12.40;;;4.10;85.00;;;;;;5017720;28;20036;-63
2021/01/05 04:09:36;;;;;;;25.20;12.65;;;4.10;84.80;;;;;;5017768;28;20030;-64
2021/01/05 04:12:02;;;;;;;24.80;12.23;;;4.20;84.90;;;;;;5017741;28;20110;-62
2021/01/05 04:14:28;;;;;;;27.42;12.85;;;4.20;84.80;;;;;;5018281;28;20152;-63
2021/01/05 04:16:53;;;;;;;26.67;11.50;;;4.20;84.50;;;;;;5017857;28;20045;-63
2021/01/05 04:19:19;;;;;;;22.58;11.45;;;4.20;84.40;;;;;;5017521;28;20124;-63
2021/01/05 04:21:49;;;;;;;23.35;10.35;;;4.20;84.80;;;;;;5017817;28;20120;-63
2021/01/05 04:24:15;;;;;;;27.50;12.38;;;4.20;84.70;;;;;;5000180;28;20399;-63
2021/01/05 04:26:40;;;;;;;21.52;10.50;;;4.20;84.90;;;;;;5016755;28;20060;-62
2021/01/05 04:29:06;;;;;;;22.75;11.75;;;4.20;84.40;;;;;;5016703;28;20025;-63
2021/01/05 04:31:45;;;;;;;19.08;10.23;;;4.20;84.20;;;;;;5013944;28;20128;-63
2021/01/05 04:34:13;;;;;;;23.25;10.75;;;4.20;84.20;;;;;;5017132;28;20112;-64
2021/01/05 04:36:39;;;;;;;19.58;9.80;;;4.10;83.60;;;;;;5017112;28;20037;-62
2021/01/05 04:39:07;;;;;;;22.15;11.75;;;4.10;84.60;;;;;;5017657;28;20061;-63
2021/01/05 04:42:08;;;;;;;21.23;10.38;;;4.10;85.50;;;;;;5017205;28;20063;-63
2021/01/05 04:44:46;;;;;;;24.63;10.73;;;4.00;84.50;;;;;;5003467;28;20053;-63
2021/01/05 04:47:46;;;;;;;21.70;11.43;;;4.00;85.30;;;;;;5017149;28;20059;-63
2021/01/05 04:50:21;;;;;;;19.67;10.45;;;4.00;85.00;;;;;;5001810;28;20037;-63
2021/01/05 04:52:54;;;;;;;23.70;9.93;;;4.00;84.70;;;;;;5017083;28;20087;-63
2021/01/05 04:55:32;;;;;;;16.70;8.85;;;3.90;85.00;;;;;;5020495;28;20521;-63
2021/01/05 04:58:09;;;;;;;21.05;9.82;;;4.00;85.40;;;;;;5021320;28;20068;-63
2021/01/05 05:00:37;;;;;;;20.30;9.95;;;4.00;85.30;;;;;;5020994;28;20025;-62
2021/01/05 05:03:26;;;;;;;20.63;9.63;;;4.00;85.00;;;;;;5020529;28;20037;-63
2021/01/05 05:06:04;;;;;;;20.30;9.52;;;4.10;85.40;;;;;;5020649;28;20041;-62
2021/01/05 05:08:37;;;;;;;16.80;8.55;;;4.00;85.30;;;;;;5021207;28;20449;-62
2021/01/05 05:11:16;;;;;;;15.90;8.25;;;4.00;85.20;;;;;;5020217;28;20049;-63
2021/01/05 05:13:45;;;;;;;18.40;9.73;;;4.00;85.30;;;;;;5021030;28;20822;-63
2021/01/05 05:16:37;;;;;;;15.85;8.38;;;4.10;85.20;;;;;;5019870;28;20069;-63
2021/01/05 05:19:05;;;;;;;17.30;9.40;;;4.10;85.10;;;;;;5020392;28;20079;-63
2021/01/05 05:21:39;;;;;;;17.00;9.00;;;4.10;84.80;;;;;;5020714;28;20040;-63
2021/01/05 05:24:19;;;;;;;20.98;9.90;;;4.20;84.80;;;;;;5019578;28;20045;-63
2021/01/05 05:26:48;;;;;;;18.77;9.77;;;4.20;85.20;;;;;;5019897;28;20048;-63
2021/01/05 05:29:42;;;;;;;22.27;9.75;;;4.20;84.60;;;;;;5020293;28;20032;-63
2021/01/05 05:32:29;;;;;;;17.50;8.95;;;4.10;84.40;;;;;;5014833;28;20550;-63
2021/01/05 05:35:04;;;;;;;20.90;11.05;;;4.10;85.00;;;;;;5019995;28;20029;-63
2021/01/05 05:38:00;;;;;;;17.10;8.95;;;4.10;85.20;;;;;;5020191;28;20076;-63
2021/01/05 05:40:57;;;;;;;20.17;10.25;;;4.10;85.20;;;;;;5019848;28;20056;-63
2021/01/05 05:43:42;;;;;;;;;;;4.20;85.10;;;;;;5020236;28;20037;-63
2021/01/05 05:46:13;;;;;;;14.55;8.13;;;4.20;85.10;;;;;;5020082;28;20407;-63
2021/01/05 05:49:00;;;;;;;16.50;9.40;;;4.20;85.20;;;;;;5019925;28;20042;-63
2021/01/05 05:51:32;;;;;;;19.40;9.30;;;4.30;85.00;;;;;;5020088;28;20398;-63
2021/01/05 05:54:17;;;;;;;14.40;8.75;;;4.30;84.80;;;;;;5001259;28;20119;-63
2021/01/05 05:57:05;;;;;;;17.25;9.63;;;4.30;84.50;;;;;;5019450;28;20041;-63
2021/01/05 05:59:56;;;;;;;15.70;9.15;;;4.20;84.30;;;;;;5019582;28;20343;-63
2021/01/05 06:02:23;;;;;;;15.13;9.23;;;4.20;84.30;;;;;;5018021;28;20615;-63
2021/01/05 06:04:52;;;;;;;17.08;9.57;;;4.20;84.40;;;;;;5019005;28;20038;-63
2021/01/05 06:07:18;;;;;;;19.40;9.35;;;4.10;85.00;;;;;;5019593;28;20421;-63
2021/01/05 06:09:44;;;;;;;17.02;9.32;;;4.10;84.70;;;;;;5001193;28;20025;-63
2021/01/05 06:12:09;;;;;;;18.40;9.23;;;4.10;84.80;;;;;;5019921;28;20039;-63
2021/01/05 06:14:35;;;;;;;18.02;9.60;;;4.10;85.10;;;;;;5019250;28;20038;-63
2021/01/05 06:17:01;;;;;;;17.02;9.55;;;4.20;85.00;;;;;;5019162;28;20041;-63
2021/01/05 06:19:26;;;;;;;18.17;9.18;;;4.20;84.40;;;;;;5018789;28;20848;-63
2021/01/05 06:21:52;;;;;;;17.85;9.38;;;4.20;84.10;;;;;;5022458;28;20029;-63
2021/01/05 06:24:18;;;;;;;18.08;9.20;;;4.20;84.50;;;;;;5019355;28;20056;-63
2021/01/05 06:26:44;;;;;;;15.90;8.90;;;4.20;84.00;;;;;;5019855;28;20033;-63
2021/01/05 06:29:09;;;;;;;16.20;9.23;;;4.20;84.10;;;;;;5020484;28;20070;-63
2021/01/05 06:31:35;;;;;;;15.85;9.13;;;4.20;84.10;;;;;;5019847;28;20069;-64
2021/01/05 06:34:01;;;;;;;15.80;8.50;;;4.20;84.50;;;;;;5016553;28;20044;-64
2021/01/05 06:36:26;;;;;;;14.32;9.15;;;4.20;84.50;;;;;;5019850;28;20456;-64
2021/01/05 06:38:52;;;;;;;15.13;8.52;;;4.30;84.20;;;;;;5019824;28;20037;-68
2021/01/05 06:41:18;;;;;;;15.50;9.23;;;4.30;84.30;;;;;;5020420;28;20029;-63
2021/01/05 06:43:44;;;;;;;16.63;9.00;;;4.30;84.40;;;;;;5019691;28;20038;-63
2021/01/05 06:46:10;;;;;;;15.68;8.45;;;4.30;84.00;;;;;;5019716;28;20108;-69
2021/01/05 06:48:36;;;;;;;17.55;9.23;;;4.30;83.80;;;;;;5016406;28;20039;-64
2021/01/05 06:51:06;;;;;;;16.33;8.48;;;4.30;83.60;;;;;;5008141;28;20478;-63
2021/01/05 06:53:32;;;;;;;14.20;8.35;;;4.40;84.10;;;;;;5018319;28;20084;-63
2021/01/05 06:55:58;;;;;;;14.13;8.50;;;4.40;83.70;;;;;;5018852;28;20145;-63
2021/01/05 06:58:23;;;;;;;15.48;8.43;;;4.30;83.70;;;;;;5018260;28;20825;-66
2021/01/05 07:00:49;;;;;;;15.27;8.25;;;4.30;83.30;;;;;;5019366;28;20037;-63
2021/01/05 07:03:14;;;;;;;17.55;8.73;;;4.20;83.50;;;;;;4997840;28;20472;-63
2021/01/05 07:05:40;;;;;;;14.93;9.13;;;4.10;83.80;;;;;;5018308;28;20489;-63
2021/01/05 07:08:06;;;;;;;17.95;9.57;;;4.10;84.20;;;;;;5018998;28;20473;-63
2021/01/05 07:10:31;;;;;;;16.60;9.20;;;4.10;84.80;;;;;;5019146;28;20033;-63
2021/01/05 07:12:57;;;;;;;15.32;8.70;;;4.10;84.80;;;;;;5018959;28;20025;-63
2021/01/05 07:15:23;;;;;;;15.98;8.40;;;4.20;84.80;;;;;;5019226;28;20033;-63
2021/01/05 07:17:48;;;;;;;17.88;9.10;;;4.20;84.50;;;;;;5019847;28;20577;-63
2021/01/05 07:20:15;;;;;;;17.50;9.38;;;4.30;84.40;;;;;;5018811;28;20856;-63
2021/01/05 07:22:41;;;;;;;16.63;8.73;;;4.30;84.10;;;;;;5019864;28;20037;-62
2021/01/05 07:25:11;;;;;;;18.60;9.95;;;4.30;84.10;;;;;;5019165;28;20035;-63
2021/01/05 07:27:37;;;;;;;14.75;7.93;;;4.30;84.00;;;;;;5019051;28;20071;-63
2021/01/05 07:30:05;;;;;;;15.93;8.68;;;4.20;84.00;;;;;;5019678;28;20945;-64
2021/01/05 07:32:31;;;;;;;16.10;8.02;;;4.20;84.20;;;;;;5018239;28;20035;-63
2021/01/05 07:34:57;;;;;;;15.25;7.55;;;4.20;84.40;;;;;;5018819;28;20680;-63
2021/01/05 07:37:29;;;;;;;14.45;8.43;;;4.30;84.10;;;;;;5018612;28;20029;-63
2021/01/05 07:39:55;;;;;;;16.55;8.82;;;4.40;84.40;;;;;;5019038;28;20043;-63
2021/01/05 07:42:24;;;;;;;16.08;9.32;;;4.40;84.10;;;;;;5018589;28;20483;-62
2021/01/05 07:44:56;;;;;;;17.13;9.10;;;4.40;83.90;;;;;;5019298;28;20041;-63
2021/01/05 07:47:32;;;;;;;17.55;9.55;;;4.50;84.00;;;;;;5018814;28;20033;-62
2021/01/05 07:49:58;;;;;;;;;;;4.50;83.90;;;;;;5018903;28;20038;-62
2021/01/05 07:52:40;;;;;;;17.73;8.77;;;4.50;83.80;;;;;;5018737;28;19920;-63
2021/01/05 07:55:08;;;;;;;21.42;10.32;;;4.40;83.80;;;;;;5001167;28;20041;-61
2021/01/05 07:57:34;;;;;;;22.35;10.85;;;4.40;84.10;;;;;;5018254;28;20041;-62
2021/01/05 07:59:59;;;;;;;19.75;9.32;;;4.50;84.20;;;;;;5018702;28;20030;-62
2021/01/05 08:02:25;;;;;;;24.05;11.50;;;4.40;84.20;;;;;;5018617;28;20046;-63
2021/01/05 08:04:51;;;;;;;20.63;10.75;;;4.50;83.50;;;;;;5018590;28;20991;-63
2021/01/05 08:07:17;;;;;;;24.67;10.90;;;4.40;83.80;;;;;;5018863;28;20051;-63
2021/01/05 08:09:43;;;;;;;23.55;10.75;;;4.50;83.70;;;;;;5018974;28;20033;-63
2021/01/05 08:12:17;;;;;;;22.17;11.15;;;4.50;83.90;;;;;;5019050;28;20771;-64
2021/01/05 08:14:43;;;;;;;22.75;11.77;;;4.50;83.80;;;;;;5014732;28;20041;-63
2021/01/05 08:17:09;;;;;;;20.40;11.13;;;4.50;83.80;;;;;;5018631;28;21012;-62
2021/01/05 08:19:35;;;;;;;24.27;11.20;;;4.50;83.80;;;;;;5017888;28;20029;-62
2021/01/05 08:22:01;;;;;;;21.25;10.45;;;4.50;84.00;;;;;;5018820;28;20041;-62
2021/01/05 08:24:27;;;;;;;20.92;11.63;;;4.50;84.10;;;;;;5019520;28;20131;-61
2021/01/05 08:26:53;;;;;;;21.27;9.50;;;4.60;83.90;;;;;;5019992;28;20029;-61
2021/01/05 08:29:18;;;;;;;21.65;11.18;;;4.60;83.90;;;;;;5022333;28;20028;-62
2021/01/05 08:31:47;;;;;;;21.98;11.30;;;4.60;84.80;;;;;;5007353;28;20033;-62
2021/01/05 08:34:13;;;;;;;22.50;10.93;;;4.60;84.30;;;;;;5007198;28;20038;-63
2021/01/05 08:36:39;;;;;;;27.38;12.88;;;4.50;84.10;;;;;;5022374;28;20251;-62
2021/01/05 08:39:06;;;;;;;24.75;11.25;;;4.50;83.80;;;;;;5021968;28;20037;-63
2021/01/05 08:41:32;;;;;;;26.05;12.40;;;4.50;84.40;;;;;;5021277;28;20105;-62
2021/01/05 08:43:57;;;;;;;24.73;12.63;;;4.40;84.50;;;;;;5022602;28;20045;-63
2021/01/05 08:46:26;;;;;;;28.92;13.60;;;4.50;84.70;;;;;;5021958;28;20073;-62
2021/01/05 08:48:52;;;;;;;21.77;10.55;;;4.50;84.20;;;;;;5021893;28;20037;-62
2021/01/05 08:51:19;;;;;;;24.17;11.20;;;4.50;83.90;;;;;;5022005;28;20064;-62
2021/01/05 08:53:49;;;;;;;27.75;11.43;;;4.50;83.80;;;;;;5022203;28;20065;-62
2021/01/05 08:56:25;;;;;;;23.92;12.40;;;4.50;83.40;;;;;;5021516;28;20041;-63
2021/01/05 08:58:51;;;;;;;18.75;9.88;;;4.50;83.90;;;;;;5003522;28;20118;-63
2021/01/05 09:01:17;;;;;;;24.92;12.85;;;4.50;83.80;;;;;;5020277;28;20033;-63
2021/01/05 09:03:42;;;;;;;21.77;10.88;;;4.50;84.20;;;;;;5021174;28;20033;-63
2021/01/05 09:06:09;;;;;;;19.70;10.00;;;4.60;84.60;;;;;;5021596;28;20036;-66
2021/01/05 09:08:35;;;;;;;24.15;11.88;;;4.60;83.80;;;;;;5020532;28;20060;-66
2021/01/05 09:11:04;;;;;;;25.63;11.93;;;4.60;84.10;;;;;;5020722;28;20559;-62
2021/01/05 09:13:30;;;;;;;25.92;11.40;;;4.70;84.10;;;;;;5019430;28;20033;-62
2021/01/05 09:15:56;;;;;;;21.50;10.63;;;4.70;83.80;;;;;;5020569;28;20033;-63
2021/01/05 09:18:22;;;;;;;20.00;10.73;;;4.70;83.60;;;;;;5020400;28;20119;-62
2021/01/05 09:20:50;;;;;;;24.70;10.57;;;4.70;83.80;;;;;;5019786;28;20033;-63
2021/01/05 09:23:21;;;;;;;24.20;11.55;;;4.70;84.00;;;;;;5017095;28;20034;-64
2021/01/05 09:25:51;;;;;;;25.13;11.60;;;4.70;84.00;;;;;;5019644;28;20091;-63
2021/01/05 09:28:18;;;;;;;24.02;11.50;;;4.80;84.00;;;;;;5017292;28;20033;-63
2021/01/05 09:30:46;;;;;;;33.35;15.90;;;4.80;83.80;;;;;;5019228;28;20048;-63
2021/01/05 09:33:11;;;;;;;25.52;11.40;;;4.80;83.70;;;;;;5020363;28;20144;-63
2021/01/05 09:35:37;;;;;;;21.23;11.05;;;4.80;83.60;;;;;;5014267;28;20092;-63
2021/01/05 09:38:08;;;;;;;22.42;10.90;;;4.80;83.50;;;;;;5020255;28;20034;-63
2021/01/05 09:40:35;;;;;;;23.20;10.10;;;4.90;83.70;;;;;;5020013;28;20041;-63
2021/01/05 09:43:01;;;;;;;24.05;11.40;;;4.90;83.90;;;;;;5020095;28;20390;-63
2021/01/05 09:45:26;;;;;;;21.25;10.23;;;4.90;83.40;;;;;;5002338;28;20072;-63
2021/01/05 09:48:12;;;;;;;21.77;11.05;;;4.80;82.70;;;;;;5020442;28;20033;-63
2021/01/05 09:50:40;;;;;;;19.95;9.68;;;4.80;83.50;;;;;;5015008;28;20033;-63
2021/01/05 09:53:07;;;;;;;25.08;11.48;;;4.70;83.90;;;;;;5020657;28;20061;-63
2021/01/05 09:55:32;;;;;;;26.23;12.07;;;4.70;84.30;;;;;;5019980;28;20033;-63
2021/01/05 09:57:59;;;;;;;23.23;10.73;;;4.80;83.70;;;;;;5020172;28;20449;-63
2021/01/05 10:00:25;;;;;;;22.15;11.35;;;4.80;83.70;;;;;;5019977;28;20493;-62
2021/01/05 10:02:51;;;;;;;21.88;10.82;;;4.80;84.00;;;;;;5019573;28;20037;-62
2021/01/05 10:05:18;;;;;;;25.13;11.65;;;4.80;84.20;;;;;;5019528;28;20036;-63
2021/01/05 10:07:44;;;;;;;22.17;11.20;;;4.90;84.20;;;;;;5020234;28;20057;-62
2021/01/05 10:10:25;;;;;;;20.67;9.75;;;4.90;83.90;;;;;;5019437;28;20039;-63
2021/01/05 10:12:52;;;;;;;23.70;11.23;;;4.90;83.30;;;;;;5016210;28;20059;-63
2021/01/05 10:15:21;;;;;;;23.75;11.20;;;4.90;83.70;;;;;;5019458;28;20108;-63
2021/01/05 10:17:46;;;;;;;20.30;10.80;;;4.90;83.40;;;;;;5018798;28;20033;-63
2021/01/05 10:20:14;;;;;;;25.90;11.38;;;4.90;83.20;;;;;;5018597;28;20289;-62
2021/01/05 10:22:40;;;;;;;19.13;10.68;;;4.90;83.20;;;;;;5014639;28;20049;-62
2021/01/05 10:25:09;;;;;;;23.20;10.68;;;5.00;83.40;;;;;;5018652;28;20041;-63
2021/01/05 10:27:35;;;;;;;21.48;11.25;;;4.90;83.40;;;;;;4999794;28;20042;-63
2021/01/05 10:30:02;;;;;;;22.85;11.10;;;5.00;83.50;;;;;;5018692;28;20037;-64
2021/01/05 10:32:28;;;;;;;18.33;9.30;;;5.10;83.00;;;;;;5018285;28;20056;-62
2021/01/05 10:34:53;;;;;;;21.63;10.65;;;5.10;82.90;;;;;;5019372;28;20025;-62
2021/01/05 10:37:19;;;;;;;21.98;11.38;;;5.10;83.00;;;;;;5020019;28;20037;-62
2021/01/05 10:39:45;;;;;;;19.25;10.23;;;5.10;82.80;;;;;;5020586;28;20620;-63
2021/01/05 10:42:10;;;;;;;17.80;9.75;;;5.10;83.00;;;;;;5019967;28;20045;-63
2021/01/05 10:44:37;;;;;;;15.68;8.48;;;5.10;83.20;;;;;;5020420;28;20037;-63
2021/01/05 10:47:05;;;;;;;18.83;10.18;;;5.10;82.90;;;;;;5019264;28;20137;-63
2021/01/05 10:49:31;;;;;;;18.35;9.50;;;5.10;82.90;;;;;;5019739;28;20037;-63
2021/01/05 10:51:59;;;;;;;21.48;10.23;;;5.10;82.90;;;;;;5019745;28;20025;-63
2021/01/05 10:54:27;;;;;;;17.13;9.43;;;5.10;83.10;;;;;;5020302;28;20129;-62
2021/01/05 10:57:04;;;;;;;18.27;9.98;;;5.10;82.80;;;;;;5018888;28;20496;-62
2021/01/05 10:59:31;;;;;;;20.67;9.50;;;5.10;83.00;;;;;;5018825;28;20048;-63
2021/01/05 11:01:57;;;;;;;18.63;10.07;;;5.20;83.00;;;;;;5018711;28;20128;-63
2021/01/05 11:04:26;;;;;;;21.98;10.02;;;5.20;83.00;;;;;;5018357;28;20083;-63
2021/01/05 11:06:58;;;;;;;17.77;10.23;;;5.20;83.10;;;;;;5018562;28;20030;-62
2021/01/05 11:09:24;;;;;;;18.38;10.10;;;5.20;83.00;;;;;;5018761;28;20953;-63
2021/01/05 11:12:01;;;;;;;17.95;9.68;;;5.20;82.70;;;;;;5017947;28;20069;-66
2021/01/05 11:14:27;;;;;;;18.88;10.38;;;5.20;83.00;;;;;;5017909;28;20102;-65
2021/01/05 11:16:54;;;;;;;18.95;10.05;;;5.20;83.20;;;;;;5017490;28;20034;-62
2021/01/05 11:19:21;;;;;;;15.75;9.13;;;5.20;83.20;;;;;;4999813;28;20064;-62
2021/01/05 11:21:55;;;;;;;16.85;9.57;;;5.20;83.40;;;;;;5018457;28;20036;-62
2021/01/05 11:24:22;;;;;;;18.65;9.27;;;5.20;83.60;;;;;;5015765;28;20468;-63
2021/01/05 11:26:48;;;;;;;23.48;9.65;;;5.20;82.30;;;;;;5018372;28;20033;-63
2021/01/05 11:29:14;;;;;;;15.57;8.50;;;5.20;83.10;;;;;;5018349;28;20029;-62
2021/01/05 11:31:40;;;;;;;17.67;8.73;;;5.20;83.40;;;;;;5017934;28;20033;-63
2021/01/05 11:34:06;;;;;;;18.95;9.38;;;5.20;83.00;;;;;;5018505;28;20047;-63
2021/01/05 11:36:32;;;;;;;15.25;8.20;;;5.20;83.10;;;;;;5017766;28;20039;-62
2021/01/05 11:38:58;;;;;;;19.42;9.57;;;5.20;83.30;;;;;;5018795;28;20037;-63
2021/01/05 11:41:31;;;;;;;14.93;8.52;;;5.20;83.60;;;;;;5018155;28;20033;-63
2021/01/05 11:43:57;;;;;;;17.00;8.80;;;5.20;83.50;;;;;;5018517;28;20096;-62
2021/01/05 11:46:23;;;;;;;19.30;9.43;;;5.20;83.60;;;;;;5016915;28;20113;-62
2021/01/05 11:48:50;;;;;;;18.95;9.40;;;5.20;83.50;;;;;;5018146;28;20083;-61
2021/01/05 11:51:31;;;;;;;20.50;9.15;;;5.10;83.40;;;;;;5015144;28;20025;-62
2021/01/05 11:53:57;;;;;;;14.77;7.60;;;5.10;83.70;;;;;;5017897;28;20029;-63
2021/01/05 11:56:28;;;;;;;16.08;8.80;;;5.10;83.60;;;;;;5017673;28;20060;-62
2021/01/05 11:58:55;;;;;;;16.85;8.73;;;5.10;83.50;;;;;;5017138;28;20042;-62
2021/01/05 12:01:21;;;;;;;21.02;9.75;;;5.10;83.40;;;;;;5017822;28;20053;-63
2021/01/05 12:03:47;;;;;;;15.77;8.05;;;5.10;83.80;;;;;;5017569;28;20033;-67
2021/01/05 12:06:21;;;;;;;16.02;8.15;;;5.10;83.80;;;;;;5017639;28;20033;-63
2021/01/05 12:08:48;;;;;;;16.52;8.40;;;5.20;84.00;;;;;;5017549;28;20056;-62
2021/01/05 12:11:32;;;;;;;17.73;9.07;;;5.20;83.50;;;;;;5018119;28;20025;-62
2021/01/05 12:13:58;;;;;;;15.55;8.40;;;5.20;83.60;;;;;;5016049;28;20040;-63
2021/01/05 12:16:31;;;;;;;15.20;8.68;;;5.10;83.30;;;;;;5017469;28;20137;-63
2021/01/05 12:18:58;;;;;;;17.20;8.50;;;5.00;83.30;;;;;;5017633;28;20141;-63
2021/01/05 12:21:26;;;;;;;15.05;8.40;;;5.00;83.20;;;;;;5017861;28;20764;-63
2021/01/05 12:23:52;;;;;;;19.10;9.32;;;5.00;83.70;;;;;;5017081;28;20042;-63
2021/01/05 12:26:44;;;;;;;18.27;8.82;;;5.00;83.80;;;;;;5012035;28;20036;-65
2021/01/05 12:29:13;;;;;;;15.25;8.45;;;5.00;83.70;;;;;;5013515;28;20041;-61
2021/01/05 12:31:49;;;;;;;20.52;9.02;;;5.00;83.10;;;;;;5017596;28;20077;-63
2021/01/05 12:34:17;;;;;;;18.17;8.30;;;5.10;83.60;;;;;;5016667;28;20045;-62
2021/01/05 12:36:43;;;;;;;15.88;8.30;;;5.00;83.50;;;;;;5017354;28;20274;-63
2021/01/05 12:39:20;;;;;;;15.80;8.80;;;5.10;83.70;;;;;;5016818;28;20037;-64
2021/01/05 12:41:47;;;;;;;14.05;8.68;;;5.10;84.10;;;;;;5017409;28;20029;-63
2021/01/05 12:44:15;;;;;;;15.93;7.05;;;5.10;84.20;;;;;;5017264;28;20118;-64
2021/01/05 12:46:41;;;;;;;14.73;8.75;;;5.10;83.00;;;;;;5016881;28;20068;-64
2021/01/05 12:49:08;;;;;;;14.77;8.70;;;5.10;83.50;;;;;;5017169;28;20041;-64
2021/01/05 12:51:37;;;;;;;15.52;8.43;;;5.10;84.00;;;;;;4999111;28;20083;-64
2021/01/05 12:54:03;;;;;;;16.23;8.20;;;5.10;83.80;;;;;;5016859;28;20903;-63
2021/01/05 12:56:29;;;;;;;15.68;8.93;;;5.00;84.00;;;;;;5016990;28;20088;-63
2021/01/05 12:58:55;;;;;;;15.43;8.10;;;5.00;84.00;;;;;;5017422;28;20506;-63
2021/01/05 13:01:22;;;;;;;15.73;8.20;;;5.00;84.10;;;;;;5017079;28;20632;-63
2021/01/05 13:03:48;;;;;;;14.00;7.65;;;5.10;84.20;;;;;;5017569;28;20048;-63
2021/01/05 13:06:15;;;;;;;17.42;8.20;;;5.10;83.60;;;;;;5016965;28;20514;-63
2021/01/05 13:08:42;;;;;;;16.45;7.82;;;5.10;83.70;;;;;;5016653;28;20063;-63